Stewarts Point, Nevada
Current Conditions -  °F | °C
As of 11:58 AM on Sunday 25 Jan 2015 (Local Time) from KLSV Reporting Station
Clear Clear  
Wind Chill: 68°   Ceiling: Unl
Heat Index: 68°   Visibility: 10mi
Dew Point: 33°   Wind: 15mph
Humidity: 28%   Direction: 40°NE
Pressure: 30.22"   Gusts: 16mph
Location:  36.5809°N, 114.605°W
Report Text: KLSV 251958Z AUTO 04013G14KT 10SM CLR 20/01 A3022 RMK AO2 SLP224 T01980005 $
Loading
Personal Weather Stations






























Interactive Weather Map New forecast layout! Learn more

10-Day Weather Forecast

Advertisements
Track Severe Weather on mobile